createdAt,value
2019-01-27T00:00:22.762Z,99.99
2019-01-27T00:01:22.762Z,99.99
2019-01-27T00:02:22.730Z,99.99
2019-01-27T00:03:22.726Z,99.99
2019-01-27T00:04:22.719Z,99.99
2019-01-27T00:05:22.696Z,99.99
2019-01-27T00:06:22.698Z,99.99
2019-01-27T00:07:22.679Z,99.99
2019-01-27T00:08:22.678Z,99.99
2019-01-27T00:09:22.650Z,99.99
2019-01-27T00:10:22.640Z,99.99
2019-01-27T00:11:22.629Z,99.99
2019-01-27T00:12:22.623Z,99.99
2019-01-27T00:13:22.632Z,99.99
2019-01-27T00:14:22.606Z,99.99
2019-01-27T00:15:22.589Z,99.99
2019-01-27T00:16:22.578Z,99.99
2019-01-27T00:17:22.570Z,99.99
2019-01-27T00:18:22.582Z,99.99
2019-01-27T00:19:22.548Z,99.99
2019-01-27T00:20:22.540Z,99.99
2019-01-27T00:21:22.526Z,99.99
2019-01-27T00:22:22.522Z,99.99
2019-01-27T00:23:22.516Z,99.99
2019-01-27T00:24:22.498Z,99.99
2019-01-27T00:25:22.475Z,99.99
2019-01-27T00:26:23.066Z,99.99
2019-01-27T00:27:22.459Z,99.99
2019-01-27T00:28:23.568Z,99.99
2019-01-27T00:29:22.453Z,99.99
2019-01-27T00:30:22.435Z,99.99
2019-01-27T00:31:22.433Z,99.99
2019-01-27T00:32:22.411Z,99.99
2019-01-27T00:33:22.430Z,99.99
2019-01-27T00:34:22.399Z,99.99
2019-01-27T00:35:22.391Z,99.99
2019-01-27T00:36:22.387Z,99.99
2019-01-27T00:37:22.353Z,99.99
2019-01-27T00:38:22.348Z,99.99
2019-01-27T00:39:22.348Z,99.99
2019-01-27T00:40:22.327Z,99.99
2019-01-27T00:41:22.321Z,99.99
2019-01-27T00:42:22.304Z,99.99
2019-01-27T00:43:22.291Z,99.99
2019-01-27T00:44:22.313Z,99.99
2019-01-27T00:45:22.312Z,99.99
2019-01-27T00:46:22.268Z,99.99
2019-01-27T00:47:22.253Z,99.99
2019-01-27T00:48:22.249Z,99.99
2019-01-27T00:49:22.252Z,99.99
2019-01-27T00:50:22.224Z,99.99
2019-01-27T00:51:22.234Z,99.99
2019-01-27T00:52:22.211Z,99.99
2019-01-27T00:53:22.210Z,99.99
2019-01-27T00:54:22.204Z,99.99
2019-01-27T00:55:22.175Z,99.99
2019-01-27T00:56:22.180Z,99.99
2019-01-27T00:57:22.172Z,99.99
2019-01-27T00:58:22.145Z,99.99
2019-01-27T00:59:22.151Z,99.99
2019-01-27T01:00:22.115Z,99.99
2019-01-27T01:01:22.115Z,99.99
2019-01-27T01:02:22.096Z,99.99
2019-01-27T01:03:22.090Z,99.99
2019-01-27T01:04:22.105Z,99.99
2019-01-27T01:05:22.074Z,99.99
2019-01-27T01:06:22.050Z,99.99
2019-01-27T01:07:22.047Z,99.99
2019-01-27T01:08:22.029Z,99.99
2019-01-27T01:09:22.042Z,99.99
2019-01-27T01:10:22.025Z,99.99
2019-01-27T01:11:22.001Z,99.99
2019-01-27T01:12:21.987Z,99.99
2019-01-27T01:13:21.985Z,99.99
2019-01-27T01:14:21.985Z,99.99
2019-01-27T01:15:21.964Z,99.99
2019-01-27T01:16:21.952Z,99.99
2019-01-27T01:17:21.937Z,99.99
2019-01-27T01:18:21.926Z,99.99
2019-01-27T01:19:21.952Z,99.99
2019-01-27T01:20:21.910Z,99.91
2019-01-27T01:21:21.899Z,99.99
2019-01-27T01:22:21.900Z,99.80
2019-01-27T01:23:21.872Z,99.91
2019-01-27T01:24:21.885Z,99.80
2019-01-27T01:25:21.856Z,99.59
2019-01-27T01:26:21.841Z,99.91
2019-01-27T01:27:21.839Z,99.59
2019-01-27T01:28:21.821Z,99.70
2019-01-27T01:29:21.834Z,99.18
2019-01-27T01:30:21.803Z,99.38
2019-01-27T01:31:21.799Z,99.59
2019-01-27T01:32:21.780Z,99.49
2019-01-27T01:33:21.777Z,99.38
2019-01-27T01:34:21.784Z,99.28
2019-01-27T01:35:21.739Z,99.49
2019-01-27T01:36:21.732Z,99.54
2019-01-27T01:37:21.731Z,99.18
2019-01-27T01:38:21.712Z,99.49
2019-01-27T01:39:21.718Z,99.38
2019-01-27T01:40:21.689Z,99.70
2019-01-27T01:41:21.679Z,98.76
2019-01-27T01:42:21.684Z,98.76
2019-01-27T01:43:21.664Z,99.28
2019-01-27T01:44:21.672Z,99.07
2019-01-27T01:45:21.643Z,98.86
2019-01-27T01:46:21.639Z,98.55
2019-01-27T01:47:21.617Z,98.91
2019-01-27T01:48:21.615Z,98.97
2019-01-27T01:49:21.617Z,98.55
2019-01-27T01:50:21.601Z,99.12
2019-01-27T01:51:21.573Z,98.60
2019-01-27T01:52:21.582Z,99.02
2019-01-27T01:53:21.562Z,99.02
2019-01-27T01:54:21.592Z,98.81
2019-01-27T01:55:21.547Z,99.12
2019-01-27T01:56:21.523Z,98.60
2019-01-27T01:57:21.524Z,99.22
2019-01-27T01:58:21.510Z,98.71
2019-01-27T01:59:21.523Z,98.91
2019-01-27T02:00:21.487Z,98.45
2019-01-27T02:01:21.482Z,98.39
2019-01-27T02:02:21.483Z,98.60
2019-01-27T02:03:21.455Z,98.60
2019-01-27T02:04:21.459Z,98.39
2019-01-27T02:05:21.431Z,99.02
2019-01-27T02:06:21.426Z,99.12
2019-01-27T02:07:21.411Z,99.22
2019-01-27T02:08:21.409Z,98.71
2019-01-27T02:09:21.419Z,99.02
2019-01-27T02:10:21.376Z,98.29
2019-01-27T02:11:21.367Z,98.71
2019-01-27T02:12:21.371Z,99.02
2019-01-27T02:13:21.365Z,98.81
2019-01-27T02:14:21.353Z,98.91
2019-01-27T02:15:21.329Z,99.54
2019-01-27T02:16:21.317Z,99.54
2019-01-27T02:17:21.304Z,99.64
2019-01-27T02:18:21.299Z,99.74
2019-01-27T02:19:21.305Z,99.68
2019-01-27T02:20:21.297Z,99.43
2019-01-27T02:21:21.272Z,99.43
2019-01-27T02:22:21.255Z,99.54
2019-01-27T02:23:21.247Z,99.74
2019-01-27T02:24:21.247Z,99.12
2019-01-27T02:25:21.229Z,99.02
2019-01-27T02:26:21.218Z,98.60
2019-01-27T02:27:21.223Z,98.91
2019-01-27T02:28:21.190Z,98.60
2019-01-27T02:29:21.208Z,99.22
2019-01-27T02:30:21.185Z,99.12
2019-01-27T02:31:21.158Z,99.02
2019-01-27T02:32:21.154Z,99.22
2019-01-27T02:33:21.146Z,99.02
2019-01-27T02:34:21.156Z,98.71
2019-01-27T02:35:21.114Z,99.02
2019-01-27T02:36:21.110Z,99.22
2019-01-27T02:37:21.106Z,98.91
2019-01-27T02:38:21.087Z,98.81
2019-01-27T02:39:21.123Z,99.12
2019-01-27T02:40:21.071Z,99.22
2019-01-27T02:41:21.054Z,98.81
2019-01-27T02:42:21.039Z,98.81
2019-01-27T02:43:21.035Z,98.60
2019-01-27T02:44:21.034Z,98.91
2019-01-27T02:45:21.031Z,98.50
2019-01-27T02:46:21.002Z,98.71
2019-01-27T02:47:21.040Z,98.50
2019-01-27T02:48:21.002Z,98.91
2019-01-27T02:49:20.995Z,98.39
2019-01-27T02:50:20.978Z,97.98
2019-01-27T02:51:20.973Z,97.98
2019-01-27T02:52:20.944Z,98.50
2019-01-27T02:53:20.948Z,98.29
2019-01-27T02:54:20.935Z,98.08
2019-01-27T02:55:20.923Z,98.29
2019-01-27T02:56:20.953Z,97.88
2019-01-27T02:57:20.908Z,98.50
2019-01-27T02:58:20.877Z,97.56
2019-01-27T02:59:20.875Z,98.08
2019-01-27T03:00:20.892Z,98.19
2019-01-27T03:01:20.856Z,98.08
2019-01-27T03:02:20.850Z,98.50
2019-01-27T03:03:20.843Z,98.39
2019-01-27T03:04:20.820Z,97.56
2019-01-27T03:05:20.822Z,97.98
2019-01-27T03:06:20.801Z,98.44
2019-01-27T03:07:20.791Z,98.08
2019-01-27T03:08:20.788Z,97.88
2019-01-27T03:09:20.756Z,98.54
2019-01-27T03:10:20.761Z,98.02
2019-01-27T03:11:20.755Z,97.98
2019-01-27T03:12:20.732Z,97.88
2019-01-27T03:13:20.732Z,98.13
2019-01-27T03:14:20.719Z,98.44
2019-01-27T03:15:20.732Z,98.02
2019-01-27T03:16:20.703Z,98.08
2019-01-27T03:17:20.690Z,97.92
2019-01-27T03:18:20.675Z,97.45
2019-01-27T03:19:20.669Z,97.92
2019-01-27T03:20:20.665Z,98.23
2019-01-27T03:21:27.671Z,97.81
2019-01-27T03:22:20.628Z,97.67
2019-01-27T03:23:20.608Z,97.71
2019-01-27T03:24:20.615Z,98.02
2019-01-27T03:25:27.677Z,97.77
2019-01-27T03:26:28.633Z,97.61
2019-01-27T03:27:28.205Z,97.50
2019-01-27T03:28:28.622Z,97.50
2019-01-27T03:29:20.551Z,97.71
2019-01-27T03:30:27.657Z,97.71
2019-01-27T03:31:29.298Z,98.23
2019-01-27T03:32:28.579Z,98.33
2019-01-27T03:33:27.569Z,97.81
2019-01-27T03:34:27.565Z,98.02
2019-01-27T03:36:31.141Z,97.30
2019-01-27T03:37:31.110Z,98.13
2019-01-27T03:38:31.093Z,98.23
2019-01-27T03:39:31.084Z,97.09
2019-01-27T03:40:31.083Z,97.71
2019-01-27T03:41:31.048Z,97.81
2019-01-27T03:42:31.054Z,98.33
2019-01-27T03:43:31.051Z,98.13
2019-01-27T03:44:31.026Z,97.40
2019-01-27T03:45:31.022Z,98.23
2019-01-27T03:46:30.999Z,96.88
2019-01-27T03:47:30.991Z,97.81
2019-01-27T03:48:30.992Z,97.81
2019-01-27T03:49:30.972Z,97.61
2019-01-27T03:50:30.987Z,97.81
2019-01-27T03:51:30.943Z,97.71
2019-01-27T03:52:30.934Z,97.19
2019-01-27T03:53:30.926Z,97.30
2019-01-27T03:54:30.918Z,96.98
2019-01-27T03:55:30.925Z,96.98
2019-01-27T03:56:30.899Z,97.40
2019-01-27T03:57:30.881Z,97.92
2019-01-27T03:58:30.870Z,96.88
2019-01-27T03:59:30.873Z,97.81
2019-01-27T04:00:30.887Z,98.33
2019-01-27T04:01:30.853Z,97.19
2019-01-27T04:02:30.830Z,97.61
2019-01-27T04:03:30.828Z,97.71
2019-01-27T04:04:30.804Z,96.88
2019-01-27T04:05:30.822Z,97.09
2019-01-27T04:06:30.793Z,97.50
2019-01-27T04:07:30.778Z,97.30
2019-01-27T04:08:30.775Z,97.30
2019-01-27T04:09:30.765Z,97.65
2019-01-27T04:10:30.763Z,97.34
2019-01-27T04:11:30.735Z,97.30
2019-01-27T04:12:30.732Z,98.33
2019-01-27T04:13:30.745Z,98.38
2019-01-27T04:14:30.713Z,97.34
2019-01-27T04:15:30.707Z,98.33
2019-01-27T04:16:30.679Z,98.07
2019-01-27T04:17:30.685Z,97.34
2019-01-27T04:18:30.666Z,97.34
2019-01-27T04:19:30.678Z,97.96
2019-01-27T04:20:30.667Z,97.96
2019-01-27T04:21:30.638Z,97.44
2019-01-27T04:22:30.616Z,97.86
2019-01-27T04:23:30.630Z,98.07
2019-01-27T04:24:30.599Z,98.27
2019-01-27T04:25:30.617Z,97.55
2019-01-27T04:26:30.592Z,97.86
2019-01-27T04:27:30.588Z,98.53
2019-01-27T04:28:30.569Z,98.17
2019-01-27T04:29:30.548Z,98.11
2019-01-27T04:30:30.559Z,98.43
2019-01-27T04:31:30.543Z,97.17
2019-01-27T04:32:30.523Z,97.86
2019-01-27T04:33:30.529Z,97.65
2019-01-27T04:34:30.504Z,97.55
2019-01-27T04:35:30.528Z,97.34
2019-01-27T04:36:30.479Z,97.44
2019-01-27T04:37:30.483Z,97.03
2019-01-27T04:38:30.462Z,97.03
2019-01-27T04:39:30.468Z,97.34
2019-01-27T04:40:30.449Z,97.55
2019-01-27T04:41:30.483Z,97.44
2019-01-27T04:42:30.423Z,97.38
2019-01-27T04:43:30.404Z,97.13
2019-01-27T04:44:30.409Z,97.44
2019-01-27T04:45:30.420Z,97.44
2019-01-27T04:46:30.365Z,97.34
2019-01-27T04:47:30.360Z,97.13
2019-01-27T04:48:30.356Z,97.44
2019-01-27T04:49:30.343Z,97.44
2019-01-27T04:50:30.345Z,96.98
2019-01-27T04:51:30.323Z,97.03
2019-01-27T04:52:30.321Z,97.44
2019-01-27T04:53:30.293Z,97.03
2019-01-27T04:54:30.287Z,97.13
2019-01-27T04:55:30.300Z,96.78
2019-01-27T04:56:30.271Z,96.92
2019-01-27T04:57:30.251Z,97.13
2019-01-27T04:58:30.247Z,96.88
2019-01-27T04:59:30.227Z,97.44
2019-01-27T05:00:30.246Z,97.09
2019-01-27T05:01:30.224Z,96.51
2019-01-27T05:02:30.211Z,96.72
2019-01-27T05:03:30.203Z,96.36
2019-01-27T05:04:30.190Z,96.04
2019-01-27T05:05:30.202Z,96.47
2019-01-27T05:06:30.168Z,96.51
2019-01-27T05:07:30.165Z,96.61
2019-01-27T05:08:30.146Z,96.51
2019-01-27T05:09:30.126Z,96.04
2019-01-27T05:10:30.140Z,96.67
2019-01-27T05:11:30.132Z,96.30
2019-01-27T05:12:30.108Z,96.04
2019-01-27T05:13:30.089Z,96.61
2019-01-27T05:14:30.079Z,96.51
2019-01-27T05:15:30.064Z,96.57
2019-01-27T05:16:30.072Z,96.61
2019-01-27T05:17:30.047Z,96.57
2019-01-27T05:18:30.034Z,96.04
2019-01-27T05:19:30.025Z,96.09
2019-01-27T05:20:30.013Z,96.61
2019-01-27T05:21:30.022Z,96.41
2019-01-27T05:22:30.024Z,96.36
2019-01-27T05:23:29.989Z,96.47
2019-01-27T05:24:29.969Z,96.20
2019-01-27T05:25:29.975Z,96.61
2019-01-27T05:26:29.991Z,96.04
2019-01-27T05:27:29.943Z,96.41
2019-01-27T05:28:29.927Z,96.25
2019-01-27T05:29:29.919Z,96.61
2019-01-27T05:30:29.903Z,96.61
2019-01-27T05:31:29.909Z,96.72
2019-01-27T05:32:29.969Z,96.67
2019-01-27T05:33:29.879Z,96.67
2019-01-27T05:34:29.869Z,96.61
2019-01-27T05:35:29.865Z,96.41
2019-01-27T05:36:29.866Z,96.67
2019-01-27T05:37:29.834Z,96.61
2019-01-27T05:38:29.827Z,96.72
2019-01-27T05:39:29.815Z,96.72
2019-01-27T05:40:29.803Z,96.82
2019-01-27T05:41:29.808Z,96.72
2019-01-27T05:42:29.783Z,96.61
2019-01-27T05:43:29.777Z,96.82
2019-01-27T05:44:29.767Z,96.20
2019-01-27T05:45:29.751Z,96.51
2019-01-27T05:46:37.819Z,96.72
2019-01-27T05:47:29.740Z,96.51
2019-01-27T05:48:29.735Z,96.67
2019-01-27T05:49:29.733Z,96.72
2019-01-27T05:50:29.699Z,96.72
2019-01-27T05:51:30.025Z,96.72
2019-01-27T05:52:29.684Z,96.20
2019-01-27T05:53:29.682Z,96.47
2019-01-27T05:54:29.684Z,96.57
2019-01-27T05:55:29.649Z,95.99
2019-01-27T05:56:29.658Z,96.09
2019-01-27T05:57:29.642Z,96.41
2019-01-27T05:58:29.622Z,96.72
2019-01-27T05:59:29.609Z,96.72
2019-01-27T06:00:29.610Z,96.61
2019-01-27T06:01:29.598Z,96.72
2019-01-27T06:02:29.581Z,96.72
2019-01-27T06:03:29.573Z,96.67
2019-01-27T06:04:29.575Z,96.57
2019-01-27T06:05:29.547Z,96.47
2019-01-27T06:06:29.562Z,96.47
2019-01-27T06:07:29.522Z,96.25
2019-01-27T06:08:29.508Z,96.47
2019-01-27T06:09:29.502Z,96.67
2019-01-27T06:10:29.502Z,96.51
2019-01-27T06:11:29.487Z,96.04
2019-01-27T06:12:29.467Z,96.41
2019-01-27T06:13:29.451Z,96.36
2019-01-27T06:14:29.448Z,96.04
2019-01-27T06:15:29.462Z,96.61
2019-01-27T06:16:29.444Z,96.72
2019-01-27T06:17:29.409Z,96.41
2019-01-27T06:18:29.414Z,96.04
2019-01-27T06:19:29.402Z,96.51
2019-01-27T06:20:29.384Z,96.47
2019-01-27T06:21:29.412Z,96.51
2019-01-27T06:22:29.366Z,96.51
2019-01-27T06:23:29.352Z,95.89
2019-01-27T06:24:29.349Z,96.25
2019-01-27T06:25:29.343Z,96.47
2019-01-27T06:26:29.382Z,96.04
2019-01-27T06:27:29.326Z,96.61
2019-01-27T06:28:29.299Z,96.67
2019-01-27T06:29:29.292Z,95.99
2019-01-27T06:30:29.288Z,96.57
2019-01-27T06:31:29.287Z,95.84
2019-01-27T06:32:29.266Z,95.73
2019-01-27T06:33:29.258Z,95.73
2019-01-27T06:34:29.257Z,96.47
2019-01-27T06:35:29.257Z,96.67
2019-01-27T06:36:29.525Z,96.61
2019-01-27T06:37:29.207Z,96.25
2019-01-27T06:38:29.195Z,96.67
2019-01-27T06:39:29.187Z,96.57
2019-01-27T06:40:29.177Z,96.47
2019-01-27T06:41:29.178Z,96.04
2019-01-27T06:42:29.179Z,96.25
2019-01-27T06:43:29.141Z,96.15
2019-01-27T06:44:29.134Z,96.57
2019-01-27T06:45:29.121Z,95.84
2019-01-27T06:46:29.128Z,95.94
2019-01-27T06:47:29.110Z,96.36
2019-01-27T06:48:29.111Z,95.84
2019-01-27T06:49:29.084Z,96.36
2019-01-27T06:50:29.061Z,95.84
2019-01-27T06:51:29.075Z,96.36
2019-01-27T06:52:29.061Z,96.15
2019-01-27T06:53:29.057Z,95.73
2019-01-27T06:54:29.028Z,95.63
2019-01-27T06:55:29.033Z,95.84
2019-01-27T06:56:29.025Z,95.94
2019-01-27T06:57:28.994Z,96.36
2019-01-27T06:58:28.988Z,96.47
2019-01-27T06:59:28.971Z,96.67
2019-01-27T07:00:28.958Z,95.84
2019-01-27T07:01:28.962Z,96.36
2019-01-27T07:02:29.651Z,96.67
2019-01-27T07:03:28.934Z,96.15
2019-01-27T07:04:28.938Z,96.62
2019-01-27T07:05:28.913Z,96.04
2019-01-27T07:06:28.918Z,96.04
2019-01-27T07:07:28.894Z,96.00
2019-01-27T07:08:28.886Z,95.94
2019-01-27T07:09:28.877Z,96.04
2019-01-27T07:10:28.867Z,96.04
2019-01-27T07:11:28.875Z,96.04
2019-01-27T07:12:28.829Z,96.36
2019-01-27T07:13:28.830Z,95.48
2019-01-27T07:14:28.820Z,95.59
2019-01-27T07:15:28.806Z,95.73
2019-01-27T07:16:28.801Z,95.59
2019-01-27T07:17:28.804Z,95.69
2019-01-27T07:18:28.773Z,95.79
2019-01-27T07:19:28.767Z,95.59
2019-01-27T07:20:28.767Z,95.48
2019-01-27T07:21:28.741Z,95.48
2019-01-27T07:22:28.777Z,95.79
2019-01-27T07:23:36.761Z,96.00
2019-01-27T07:24:35.775Z,96.11
2019-01-27T07:25:28.708Z,95.69
2019-01-27T07:26:28.696Z,96.11
2019-01-27T07:27:28.697Z,95.69
2019-01-27T07:28:28.694Z,95.69
2019-01-27T07:29:28.678Z,95.69
2019-01-27T07:30:28.663Z,96.00
2019-01-27T07:31:28.636Z,95.59
2019-01-27T07:32:28.643Z,95.38
2019-01-27T07:33:28.641Z,95.69
2019-01-27T07:34:28.616Z,95.69
2019-01-27T07:35:28.594Z,95.69
2019-01-27T07:36:28.586Z,95.79
2019-01-27T07:37:28.600Z,95.75
2019-01-27T07:38:28.586Z,95.28
2019-01-27T07:39:28.561Z,95.69
2019-01-27T07:40:28.551Z,95.90
2019-01-27T07:41:28.546Z,95.44
2019-01-27T07:42:28.533Z,94.61
2019-01-27T07:43:28.512Z,95.23
2019-01-27T07:44:28.527Z,94.86
2019-01-27T07:45:28.493Z,95.69
2019-01-27T07:46:28.502Z,95.17
2019-01-27T07:47:28.497Z,94.86
2019-01-27T07:48:28.468Z,95.79
2019-01-27T07:49:28.446Z,95.48
2019-01-27T07:50:28.448Z,95.13
2019-01-27T07:51:28.438Z,95.69
2019-01-27T07:52:28.444Z,96.00
2019-01-27T07:53:28.407Z,95.59
2019-01-27T07:54:28.407Z,95.28
2019-01-27T07:55:28.382Z,95.69
2019-01-27T07:56:28.373Z,95.07
2019-01-27T07:57:28.375Z,95.28
2019-01-27T07:58:28.362Z,95.28
2019-01-27T07:59:28.343Z,95.07
2019-01-27T08:00:28.329Z,95.59
2019-01-27T08:01:28.321Z,95.28
2019-01-27T08:02:28.333Z,95.69
2019-01-27T08:03:28.316Z,96.11
2019-01-27T08:04:28.296Z,95.48
2019-01-27T08:05:28.277Z,96.21
2019-01-27T08:06:28.282Z,95.69
2019-01-27T08:07:28.273Z,95.38
2019-01-27T08:08:28.256Z,95.69
2019-01-27T08:09:28.262Z,95.59
2019-01-27T08:10:28.235Z,95.59
2019-01-27T08:11:28.227Z,95.69
2019-01-27T08:12:28.230Z,96.00
2019-01-27T08:13:28.212Z,96.21
2019-01-27T08:14:28.196Z,96.15
2019-01-27T08:15:28.192Z,96.42
2019-01-27T08:16:28.167Z,96.47
2019-01-27T08:17:28.166Z,96.15
2019-01-27T08:18:28.152Z,96.67
2019-01-27T08:19:28.136Z,96.25
2019-01-27T08:20:28.134Z,96.04
2019-01-27T08:21:28.117Z,96.25
2019-01-27T08:22:28.114Z,96.00
2019-01-27T08:23:28.094Z,96.78
2019-01-27T08:24:28.080Z,96.04
2019-01-27T08:25:28.078Z,96.62
2019-01-27T08:26:28.085Z,96.52
2019-01-27T08:27:28.073Z,96.52
2019-01-27T08:28:28.037Z,96.52
2019-01-27T08:29:28.035Z,96.52
2019-01-27T08:30:28.023Z,96.52
2019-01-27T08:31:28.025Z,96.37
2019-01-27T08:32:28.028Z,95.75
2019-01-27T08:33:27.995Z,96.27
2019-01-27T08:34:27.987Z,96.27
2019-01-27T08:35:27.973Z,96.27
2019-01-27T08:36:27.965Z,95.75
2019-01-27T08:37:27.963Z,96.17
2019-01-27T08:38:27.937Z,96.27
2019-01-27T08:39:27.934Z,96.27
2019-01-27T08:40:27.913Z,96.48
2019-01-27T08:41:27.913Z,95.96
2019-01-27T08:42:27.919Z,95.75
2019-01-27T08:43:27.889Z,96.12
2019-01-27T08:44:35.912Z,95.96
2019-01-27T08:45:36.138Z,96.23
2019-01-27T08:46:27.844Z,96.02
2019-01-27T08:47:27.852Z,95.61
2019-01-27T08:48:27.847Z,95.71
2019-01-27T08:49:27.817Z,95.61
2019-01-27T08:50:27.805Z,95.54
2019-01-27T08:51:27.812Z,95.96
2019-01-27T08:52:27.817Z,95.86
2019-01-27T08:53:27.817Z,95.96
2019-01-27T08:54:27.773Z,96.06
2019-01-27T08:55:27.752Z,96.17
2019-01-27T08:56:27.748Z,96.06
2019-01-27T08:57:27.753Z,96.27
2019-01-27T08:58:27.724Z,96.17
2019-01-27T08:59:27.744Z,96.17
2019-01-27T09:00:27.720Z,96.27
2019-01-27T09:01:27.700Z,96.58
2019-01-27T09:02:27.702Z,96.27
2019-01-27T09:03:27.684Z,96.58
2019-01-27T09:04:27.679Z,96.27
2019-01-27T09:05:27.671Z,96.06
2019-01-27T09:06:27.639Z,95.81
2019-01-27T09:07:27.639Z,96.02
2019-01-27T09:08:27.629Z,96.44
2019-01-27T09:09:27.604Z,95.77
2019-01-27T09:10:27.613Z,95.46
2019-01-27T09:11:27.603Z,95.25
2019-01-27T09:12:27.594Z,94.79
2019-01-27T09:13:27.566Z,94.02
2019-01-27T09:14:27.565Z,92.98
2019-01-27T09:15:27.545Z,92.94
2019-01-27T09:16:27.545Z,92.43
2019-01-27T09:17:34.610Z,92.63
2019-01-27T09:18:27.534Z,92.84
2019-01-27T09:19:27.517Z,92.05
2019-01-27T09:20:28.141Z,92.88
2019-01-27T09:21:27.477Z,93.19
2019-01-27T09:22:27.497Z,92.78
2019-01-27T09:23:27.461Z,93.08
2019-01-27T09:24:27.490Z,93.29
2019-01-27T09:25:27.540Z,93.40
2019-01-27T09:26:27.436Z,92.88
2019-01-27T09:27:27.424Z,93.60
2019-01-27T09:28:27.427Z,93.33
2019-01-27T09:29:27.408Z,93.50
2019-01-27T09:30:27.427Z,93.40
2019-01-27T09:31:27.370Z,92.36
2019-01-27T09:32:27.384Z,93.19
2019-01-27T09:33:27.363Z,92.78
2019-01-27T09:34:27.345Z,92.88
2019-01-27T09:35:27.333Z,92.57
2019-01-27T09:36:27.331Z,92.98
2019-01-27T09:37:27.310Z,93.08
2019-01-27T09:38:27.314Z,93.71
2019-01-27T09:39:27.297Z,94.06
2019-01-27T09:40:27.290Z,93.54
2019-01-27T09:41:27.279Z,93.44
2019-01-27T09:42:27.280Z,94.48
2019-01-27T09:43:28.911Z,93.81
2019-01-27T09:44:27.244Z,93.60
2019-01-27T09:45:27.222Z,93.08
2019-01-27T09:46:27.220Z,93.15
2019-01-27T09:47:27.213Z,92.78
2019-01-27T09:48:27.218Z,92.57
2019-01-27T09:49:27.183Z,92.16
2019-01-27T09:50:27.189Z,93.19
2019-01-27T09:51:27.872Z,92.88
2019-01-27T09:52:27.159Z,92.94
2019-01-27T09:53:27.168Z,93.19
2019-01-27T09:54:27.151Z,92.47
2019-01-27T09:55:27.128Z,92.68
2019-01-27T09:56:27.113Z,92.47
2019-01-27T09:57:27.122Z,92.63
2019-01-27T09:58:27.109Z,92.07
2019-01-27T09:59:27.089Z,91.03
2019-01-27T10:00:27.071Z,90.93
2019-01-27T10:01:27.065Z,91.24
2019-01-27T10:02:27.050Z,91.39
2019-01-27T10:03:27.059Z,91.28
2019-01-27T10:04:27.038Z,91.08
2019-01-27T10:05:27.025Z,91.49
2019-01-27T10:06:27.035Z,91.80
2019-01-27T10:07:27.014Z,91.80
2019-01-27T10:08:27.020Z,91.24
2019-01-27T10:09:26.972Z,91.03
2019-01-27T10:10:26.959Z,91.28
2019-01-27T10:11:26.958Z,91.39
2019-01-27T10:12:26.968Z,91.60
2019-01-27T10:13:26.968Z,91.70
2019-01-27T10:14:26.927Z,91.03
2019-01-27T10:15:26.921Z,91.20
2019-01-27T10:16:26.912Z,89.69
2019-01-27T10:17:26.897Z,89.86
2019-01-27T10:18:26.916Z,89.44
2019-01-27T10:19:26.878Z,89.54
2019-01-27T10:20:26.858Z,89.86
2019-01-27T10:21:26.872Z,89.34
2019-01-27T10:22:27.668Z,89.65
2019-01-27T10:23:26.838Z,89.44
2019-01-27T10:24:26.831Z,89.23
2019-01-27T10:25:26.815Z,89.54
2019-01-27T10:26:26.806Z,89.96
2019-01-27T10:27:26.791Z,89.29
2019-01-27T10:28:26.810Z,88.32
2019-01-27T10:29:26.786Z,87.60
2019-01-27T10:30:26.773Z,87.46
2019-01-27T10:31:26.784Z,86.77
2019-01-27T10:32:26.740Z,86.21
2019-01-27T10:33:26.773Z,86.01
2019-01-27T10:34:26.725Z,86.21
2019-01-27T10:35:26.729Z,85.91
2019-01-27T10:36:26.711Z,86.18
2019-01-27T10:37:26.691Z,85.14
2019-01-27T10:38:26.693Z,85.76
2019-01-27T10:39:26.664Z,85.97
2019-01-27T10:40:26.657Z,85.49
2019-01-27T10:41:26.650Z,86.11
2019-01-27T10:42:26.650Z,86.15
2019-01-27T10:43:26.650Z,86.36
2019-01-27T10:44:26.616Z,87.08
2019-01-27T10:45:26.606Z,86.67
2019-01-27T10:46:26.593Z,87.29
2019-01-27T10:47:26.581Z,87.29
2019-01-27T10:48:26.587Z,87.39
2019-01-27T10:49:26.557Z,87.85
2019-01-27T10:50:26.558Z,87.70
2019-01-27T10:51:26.544Z,87.60
2019-01-27T10:52:26.520Z,87.70
2019-01-27T10:53:26.532Z,87.43
2019-01-27T10:54:26.509Z,87.29
2019-01-27T10:55:26.484Z,87.70
2019-01-27T10:56:26.473Z,87.70
2019-01-27T10:57:26.474Z,88.12
2019-01-27T10:58:26.484Z,87.49
2019-01-27T10:59:26.440Z,88.32
2019-01-27T11:00:26.440Z,88.67
2019-01-27T11:01:26.447Z,89.29
2019-01-27T11:02:26.429Z,89.81
2019-01-27T11:03:26.418Z,89.09
2019-01-27T11:04:26.391Z,88.78
2019-01-27T11:05:26.390Z,89.29
2019-01-27T11:06:34.439Z,89.75
2019-01-27T11:07:26.364Z,90.53
2019-01-27T11:08:26.362Z,90.95
2019-01-27T11:09:26.344Z,89.86
2019-01-27T11:10:34.426Z,90.47
2019-01-27T11:11:26.323Z,91.26
2019-01-27T11:12:26.326Z,91.30
2019-01-27T11:13:26.327Z,91.93
2019-01-27T11:14:33.339Z,92.55
2019-01-27T11:15:26.308Z,92.40
2019-01-27T11:16:26.278Z,91.51
2019-01-27T11:17:26.251Z,91.61
2019-01-27T11:18:27.241Z,92.40
2019-01-27T11:19:26.243Z,91.16
2019-01-27T11:20:26.228Z,91.36
2019-01-27T11:21:26.211Z,91.36
2019-01-27T11:22:26.474Z,91.67
2019-01-27T11:23:26.247Z,91.78
2019-01-27T11:24:26.197Z,92.44
2019-01-27T11:25:26.185Z,93.16
2019-01-27T11:26:26.163Z,92.96
2019-01-27T11:27:32.831Z,93.64
2019-01-27T11:28:27.170Z,93.89
2019-01-27T11:29:26.129Z,93.06
2019-01-27T11:30:26.128Z,93.33
2019-01-27T11:31:26.125Z,92.61
2019-01-27T11:32:26.101Z,93.18
2019-01-27T11:33:26.103Z,92.50
2019-01-27T11:34:26.096Z,92.61
2019-01-27T11:35:26.070Z,93.54
2019-01-27T11:36:26.068Z,94.37
2019-01-27T11:37:26.057Z,94.51
2019-01-27T11:38:26.047Z,93.43
2019-01-27T11:39:26.054Z,94.57
2019-01-27T11:40:26.022Z,94.37
2019-01-27T11:41:26.014Z,94.57
2019-01-27T11:42:26.011Z,94.10
2019-01-27T11:43:25.994Z,94.47
2019-01-27T11:44:25.982Z,94.06
2019-01-27T11:45:26.057Z,93.74
2019-01-27T11:46:25.979Z,94.43
2019-01-27T11:47:25.941Z,94.43
2019-01-27T11:48:25.989Z,93.08
2019-01-27T11:49:25.956Z,93.18
2019-01-27T11:50:25.914Z,93.80
2019-01-27T11:51:25.922Z,94.53
2019-01-27T11:52:25.898Z,93.18
2019-01-27T11:53:25.894Z,93.08
2019-01-27T11:54:25.901Z,93.45
2019-01-27T11:55:25.863Z,92.32
2019-01-27T11:56:25.851Z,92.67
2019-01-27T11:57:25.833Z,92.57
2019-01-27T11:58:25.826Z,93.18
2019-01-27T11:59:25.831Z,93.43
2019-01-27T12:00:25.803Z,94.06
2019-01-27T12:01:25.801Z,93.43
2019-01-27T12:02:25.793Z,93.74
2019-01-27T12:03:25.780Z,95.09
2019-01-27T12:04:25.771Z,94.78
2019-01-27T12:05:25.759Z,94.68
2019-01-27T12:06:25.747Z,94.37
2019-01-27T12:07:25.731Z,93.85
2019-01-27T12:08:25.719Z,94.78
2019-01-27T12:09:25.717Z,94.16
2019-01-27T12:10:25.694Z,94.37
2019-01-27T12:11:25.696Z,94.26
2019-01-27T12:12:25.674Z,94.51
2019-01-27T12:13:25.655Z,94.62
2019-01-27T12:14:25.662Z,94.57
2019-01-27T12:15:25.655Z,93.79
2019-01-27T12:16:25.650Z,94.31
2019-01-27T12:17:25.633Z,95.14
2019-01-27T12:18:25.615Z,94.41
2019-01-27T12:19:25.622Z,93.89
2019-01-27T12:20:25.586Z,94.41
2019-01-27T12:21:25.594Z,94.57
2019-01-27T12:22:25.580Z,93.68
2019-01-27T12:23:25.568Z,94.37
2019-01-27T12:24:25.577Z,94.78
2019-01-27T12:25:25.550Z,94.62
2019-01-27T12:26:25.545Z,94.31
2019-01-27T12:27:25.529Z,94.10
2019-01-27T12:28:25.516Z,94.68
2019-01-27T12:29:25.653Z,94.93
2019-01-27T12:30:25.499Z,94.41
2019-01-27T12:31:25.473Z,93.89
2019-01-27T12:32:25.459Z,94.51
2019-01-27T12:33:25.460Z,94.41
2019-01-27T12:34:25.460Z,94.31
2019-01-27T12:35:25.446Z,95.14
2019-01-27T12:36:25.431Z,95.34
2019-01-27T12:37:25.458Z,95.86
2019-01-27T12:38:25.410Z,95.44
2019-01-27T12:39:25.436Z,95.34
2019-01-27T12:40:25.392Z,95.75
2019-01-27T12:41:26.235Z,96.06
2019-01-27T12:42:25.365Z,96.01
2019-01-27T12:43:25.349Z,95.75
2019-01-27T12:44:25.364Z,95.75
2019-01-27T12:45:25.343Z,96.58
2019-01-27T12:46:25.326Z,96.48
2019-01-27T12:47:25.305Z,95.96
2019-01-27T12:48:25.317Z,95.54
2019-01-27T12:49:25.307Z,95.86
2019-01-27T12:50:25.276Z,95.86
2019-01-27T12:51:25.270Z,96.48
2019-01-27T12:52:25.261Z,96.27
2019-01-27T12:53:25.254Z,96.12